Time;durP1;ratioP1;P1;durP2;ratioP2;P2;SDS_P1;SDS_P2;PMS_P1;PMS_P2;Temp;Humidity;BMP_temperature;BMP_pressure;BME280_temperature;BME280_humidity;BME280_pressure;Samples;Min_cycle;Max_cycle;Signal;HPM_P1;HPM_P2
2023/05/19 00:01:08;;;;;;;16.10;5.43;;;;;;;;;;5027674;28;20033;-72
2023/05/19 00:03:39;;;;;;;19.75;5.55;;;;;;;;;;5033088;28;20025;-70
2023/05/19 00:06:07;;;;;;;22.65;5.90;;;;;;;;;;5033328;28;20470;-71
2023/05/19 00:08:33;;;;;;;15.75;5.45;;;;;;;;;;5033399;28;20033;-71
2023/05/19 00:11:00;;;;;;;18.17;5.55;;;;;;;;;;5033330;28;20167;-71
2023/05/19 00:13:26;;;;;;;16.58;4.85;;;;;;;;;;5034559;28;20036;-70
2023/05/19 00:15:53;;;;;;;22.90;5.38;;;;;;;;;;5035748;28;20021;-71
2023/05/19 00:18:19;;;;;;;17.52;5.57;;;;;;;;;;5033213;28;20018;-71
2023/05/19 00:20:45;;;;;;;18.83;5.38;;;;;;;;;;5033175;28;20028;-70
2023/05/19 00:23:11;;;;;;;12.50;4.55;;;;;;;;;;5033594;28;20025;-71
2023/05/19 00:25:37;;;;;;;10.77;4.32;;;;;;;;;;5032809;28;20108;-69
2023/05/19 00:28:03;;;;;;;16.13;4.60;;;;;;;;;;5033660;28;20219;-69
2023/05/19 00:30:29;;;;;;;15.00;4.47;;;;;;;;;;5033010;28;20029;-70
2023/05/19 00:32:55;;;;;;;20.40;4.95;;;;;;;;;;5032679;28;20029;-71
2023/05/19 00:35:22;;;;;;;15.65;5.15;;;;;;;;;;5033311;28;20029;-72
2023/05/19 00:37:48;;;;;;;16.67;5.32;;;;;;;;;;5032608;28;20053;-69
2023/05/19 00:40:14;;;;;;;15.65;4.60;;;;;;;;;;5032733;28;20491;-71
2023/05/19 00:42:41;;;;;;;21.10;5.55;;;;;;;;;;5032644;28;20472;-71
2023/05/19 00:45:07;;;;;;;16.17;5.07;;;;;;;;;;5033494;28;20037;-71
2023/05/19 00:47:33;;;;;;;20.00;5.47;;;;;;;;;;5032104;28;20068;-71
2023/05/19 00:49:59;;;;;;;16.77;4.85;;;;;;;;;;5032522;28;20039;-71
2023/05/19 00:52:26;;;;;;;18.33;4.80;;;;;;;;;;5032112;28;20037;-69
2023/05/19 00:54:53;;;;;;;18.17;4.38;;;;;;;;;;5032552;28;20025;-70
2023/05/19 00:57:19;;;;;;;18.48;4.93;;;;;;;;;;5032559;28;20034;-71
2023/05/19 00:59:46;;;;;;;19.42;4.70;;;;;;;;;;5032607;28;20021;-70
2023/05/19 01:02:12;;;;;;;16.48;4.93;;;;;;;;;;5032251;28;20049;-70
2023/05/19 01:04:40;;;;;;;14.60;4.80;;;;;;;;;;5033093;28;20025;-70
2023/05/19 01:07:06;;;;;;;23.48;4.85;;;;;;;;;;5031555;28;20029;-72
2023/05/19 01:09:32;;;;;;;20.98;4.82;;;;;;;;;;5032185;28;20527;-71
2023/05/19 01:12:00;;;;;;;11.75;4.88;;;;;;;;;;5032278;28;20017;-70
2023/05/19 01:14:26;;;;;;;18.10;5.43;;;;;;;;;;5032946;28;20033;-71
2023/05/19 01:17:04;;;;;;;14.60;5.47;;;;;;;;;;5032592;28;20021;-70
2023/05/19 01:19:49;;;;;;;20.73;4.93;;;;;;;;;;5033189;28;20064;-70
2023/05/19 01:22:21;;;;;;;15.40;4.90;;;;;;;;;;5032541;28;20025;-70
2023/05/19 01:24:48;;;;;;;22.33;5.10;;;;;;;;;;5033318;28;20045;-71
2023/05/19 01:27:14;;;;;;;21.48;5.22;;;;;;;;;;5032879;28;20186;-71
2023/05/19 01:29:58;;;;;;;16.40;4.65;;;;;;;;;;5032793;28;20491;-70
2023/05/19 01:32:25;;;;;;;15.07;4.72;;;;;;;;;;5033110;28;20025;-71
2023/05/19 01:34:51;;;;;;;14.80;4.75;;;;;;;;;;5033425;28;20480;-70
2023/05/19 01:37:19;;;;;;;16.98;5.57;;;;;;;;;;5033957;28;20053;-71
2023/05/19 01:39:45;;;;;;;17.38;5.18;;;;;;;;;;5035226;28;20117;-70
2023/05/19 01:42:12;;;;;;;18.02;5.03;;;;;;;;;;5032613;28;20442;-70
2023/05/19 01:44:38;;;;;;;13.27;4.95;;;;;;;;;;5031628;28;20100;-71
2023/05/19 01:47:04;;;;;;;17.55;4.75;;;;;;;;;;5031666;28;20036;-70
2023/05/19 01:49:30;;;;;;;18.00;5.43;;;;;;;;;;5031566;28;20033;-70
2023/05/19 01:51:56;;;;;;;17.55;5.20;;;;;;;;;;5031368;28;20026;-70
2023/05/19 01:54:22;;;;;;;14.27;4.72;;;;;;;;;;5031434;28;20542;-70
2023/05/19 01:56:48;;;;;;;16.33;4.88;;;;;;;;;;5031544;28;20018;-70
2023/05/19 01:59:33;;;;;;;25.23;5.55;;;;;;;;;;5030634;28;20018;-70
2023/05/19 02:02:01;;;;;;;15.80;4.68;;;;;;;;;;5030375;28;20469;-70
2023/05/19 02:04:38;;;;;;;27.33;5.65;;;;;;;;;;5030636;28;20308;-71
2023/05/19 02:07:12;;;;;;;20.20;5.30;;;;;;;;;;5030352;28;20029;-71
2023/05/19 02:09:40;;;;;;;16.90;4.95;;;;;;;;;;5030725;28;20064;-70
2023/05/19 02:12:15;;;;;;;19.15;5.53;;;;;;;;;;5030287;28;20036;-70
2023/05/19 02:14:45;;;;;;;16.40;5.80;;;;;;;;;;5030971;28;20043;-71
2023/05/19 02:17:13;;;;;;;16.92;5.38;;;;;;;;;;5030975;28;20017;-70
2023/05/19 02:19:39;;;;;;;21.40;5.65;;;;;;;;;;5029322;28;20161;-71
2023/05/19 02:22:05;;;;;;;16.63;5.57;;;;;;;;;;5023208;28;20384;-70
2023/05/19 02:24:31;;;;;;;13.75;5.25;;;;;;;;;;5030211;28;20072;-72
2023/05/19 02:26:57;;;;;;;23.60;5.95;;;;;;;;;;5030489;28;20025;-74
2023/05/19 02:29:23;;;;;;;21.67;6.00;;;;;;;;;;5030254;28;20017;-71
2023/05/19 02:31:49;;;;;;;19.15;5.72;;;;;;;;;;5029950;28;20442;-71
2023/05/19 02:34:15;;;;;;;22.88;5.82;;;;;;;;;;5030063;28;20480;-70
2023/05/19 02:36:42;;;;;;;15.75;5.80;;;;;;;;;;5030065;28;20032;-70
2023/05/19 02:39:08;;;;;;;17.38;5.57;;;;;;;;;;5030215;28;20036;-70
2023/05/19 02:41:34;;;;;;;15.30;5.50;;;;;;;;;;5030196;28;20022;-70
2023/05/19 02:44:00;;;;;;;14.85;5.25;;;;;;;;;;5030028;28;20026;-71
2023/05/19 02:46:26;;;;;;;16.75;5.05;;;;;;;;;;5030923;28;20412;-70
2023/05/19 02:48:52;;;;;;;19.58;6.05;;;;;;;;;;5030198;28;20033;-71
2023/05/19 02:51:18;;;;;;;15.23;5.65;;;;;;;;;;5030470;28;20112;-72
2023/05/19 02:53:44;;;;;;;16.42;5.35;;;;;;;;;;5030064;28;20030;-71
2023/05/19 02:56:10;;;;;;;19.70;6.07;;;;;;;;;;5030026;28;20033;-71
2023/05/19 02:58:36;;;;;;;24.73;6.50;;;;;;;;;;5030155;28;20021;-71
2023/05/19 03:01:02;;;;;;;16.85;5.63;;;;;;;;;;5029687;28;20022;-72
2023/05/19 03:03:28;;;;;;;20.17;5.72;;;;;;;;;;5029514;28;20147;-71
2023/05/19 03:05:54;;;;;;;23.05;5.75;;;;;;;;;;5029970;28;20214;-71
2023/05/19 03:08:20;;;;;;;18.52;6.05;;;;;;;;;;5029880;28;20120;-71
2023/05/19 03:10:46;;;;;;;18.23;5.93;;;;;;;;;;5031531;28;20029;-69
2023/05/19 03:13:12;;;;;;;16.65;5.75;;;;;;;;;;5032991;28;20503;-68
2023/05/19 03:15:38;;;;;;;21.10;6.05;;;;;;;;;;5033471;28;20395;-69
2023/05/19 03:18:05;;;;;;;14.80;5.63;;;;;;;;;;5033343;28;20021;-70
2023/05/19 03:20:32;;;;;;;15.35;6.35;;;;;;;;;;5033445;28;20042;-69
2023/05/19 03:22:58;;;;;;;23.27;6.07;;;;;;;;;;5033052;28;20563;-69
2023/05/19 03:25:24;;;;;;;21.67;5.85;;;;;;;;;;5034592;28;20483;-70
2023/05/19 03:27:50;;;;;;;16.35;6.05;;;;;;;;;;5034622;28;20027;-69
2023/05/19 03:30:16;;;;;;;20.13;6.22;;;;;;;;;;5033982;28;20029;-70
2023/05/19 03:32:43;;;;;;;27.48;6.95;;;;;;;;;;5032806;28;20366;-70
2023/05/19 03:35:09;;;;;;;19.92;5.97;;;;;;;;;;5032902;28;20026;-70
2023/05/19 03:37:35;;;;;;;17.00;6.28;;;;;;;;;;5033207;28;20468;-69
2023/05/19 03:40:01;;;;;;;15.40;6.18;;;;;;;;;;5033323;28;20084;-69
2023/05/19 03:42:27;;;;;;;18.38;5.90;;;;;;;;;;5033294;28;20450;-69
2023/05/19 03:44:53;;;;;;;20.23;6.15;;;;;;;;;;5033508;28;20056;-70
2023/05/19 03:47:19;;;;;;;18.48;6.00;;;;;;;;;;5032862;28;20037;-70
2023/05/19 03:49:45;;;;;;;22.65;6.53;;;;;;;;;;5032930;28;20056;-70
2023/05/19 03:52:11;;;;;;;14.75;5.38;;;;;;;;;;5032619;28;20100;-69
2023/05/19 03:54:38;;;;;;;17.83;6.22;;;;;;;;;;5032815;28;20014;-70
2023/05/19 03:57:04;;;;;;;17.90;6.18;;;;;;;;;;5032976;28;20071;-69
2023/05/19 03:59:30;;;;;;;21.02;6.63;;;;;;;;;;5032690;28;20502;-71
2023/05/19 04:01:57;;;;;;;19.80;6.72;;;;;;;;;;5032515;28;20061;-71
2023/05/19 04:04:23;;;;;;;22.15;7.88;;;;;;;;;;5033189;28;20021;-69
2023/05/19 04:06:49;;;;;;;24.15;7.10;;;;;;;;;;5032551;28;20033;-69
2023/05/19 04:09:15;;;;;;;20.20;6.93;;;;;;;;;;5032204;28;20079;-70
2023/05/19 04:11:41;;;;;;;18.40;6.72;;;;;;;;;;5032328;28;20029;-69
2023/05/19 04:14:08;;;;;;;24.00;6.75;;;;;;;;;;5032023;28;20056;-70
2023/05/19 04:16:34;;;;;;;24.95;10.32;;;;;;;;;;5032442;28;20041;-70
2023/05/19 04:19:00;;;;;;;19.38;6.75;;;;;;;;;;5032123;28;20018;-70
2023/05/19 04:21:26;;;;;;;17.52;6.28;;;;;;;;;;5027758;28;20040;-73
2023/05/19 04:23:53;;;;;;;24.05;6.65;;;;;;;;;;5030983;28;20026;-71
2023/05/19 04:26:20;;;;;;;14.98;5.88;;;;;;;;;;5031708;28;20469;-73
2023/05/19 04:28:47;;;;;;;22.85;6.68;;;;;;;;;;5031345;28;20029;-71
2023/05/19 04:31:13;;;;;;;26.40;6.80;;;;;;;;;;5025481;28;20511;-71
2023/05/19 04:33:40;;;;;;;20.85;6.40;;;;;;;;;;5032352;28;20514;-72
2023/05/19 04:36:10;;;;;;;20.08;6.32;;;;;;;;;;5032819;28;20022;-72
2023/05/19 04:38:38;;;;;;;22.35;6.70;;;;;;;;;;5027751;28;20026;-72
2023/05/19 04:41:05;;;;;;;18.08;6.53;;;;;;;;;;5032691;28;20023;-73
2023/05/19 04:43:31;;;;;;;20.27;6.00;;;;;;;;;;5033814;28;20029;-71
2023/05/19 04:45:57;;;;;;;19.48;6.68;;;;;;;;;;5033166;28;20029;-72
2023/05/19 04:48:23;;;;;;;20.25;6.43;;;;;;;;;;5031734;28;20084;-73
2023/05/19 04:50:50;;;;;;;19.50;6.35;;;;;;;;;;5031497;28;20439;-68
2023/05/19 04:53:17;;;;;;;15.45;5.85;;;;;;;;;;5031134;28;20032;-70
2023/05/19 04:55:44;;;;;;;23.27;6.72;;;;;;;;;;5031458;28;20446;-69
2023/05/19 04:58:10;;;;;;;23.23;6.78;;;;;;;;;;5030690;28;20506;-69
2023/05/19 05:00:39;;;;;;;19.02;6.22;;;;;;;;;;5031852;28;20029;-70
2023/05/19 05:03:05;;;;;;;16.50;5.30;;;;;;;;;;5032028;28;20480;-69
2023/05/19 05:05:32;;;;;;;25.20;6.80;;;;;;;;;;5032479;28;20383;-70
2023/05/19 05:07:58;;;;;;;19.55;6.43;;;;;;;;;;5031758;28;20132;-70
2023/05/19 05:10:24;;;;;;;26.58;7.88;;;;;;;;;;5031580;28;20108;-68
2023/05/19 05:12:50;;;;;;;19.70;6.13;;;;;;;;;;5031027;28;20112;-69
2023/05/19 05:15:17;;;;;;;22.73;6.20;;;;;;;;;;5031285;28;20108;-68
2023/05/19 05:17:43;;;;;;;20.17;5.95;;;;;;;;;;5031717;28;20021;-69
2023/05/19 05:20:10;;;;;;;24.90;6.00;;;;;;;;;;5031293;28;20022;-71
2023/05/19 05:22:37;;;;;;;19.95;6.45;;;;;;;;;;5030830;28;20032;-69
2023/05/19 05:25:03;;;;;;;18.73;5.93;;;;;;;;;;5030903;28;20104;-72
2023/05/19 05:27:30;;;;;;;21.45;6.15;;;;;;;;;;5030752;28;20096;-75
2023/05/19 05:29:56;;;;;;;24.23;6.25;;;;;;;;;;5031144;28;20029;-73
2023/05/19 05:32:22;;;;;;;19.27;5.35;;;;;;;;;;5030835;28;20025;-72
2023/05/19 05:34:48;;;;;;;21.27;6.05;;;;;;;;;;5030515;28;20034;-70
2023/05/19 05:37:14;;;;;;;28.15;6.07;;;;;;;;;;5031041;28;20032;-70
2023/05/19 05:39:40;;;;;;;23.98;6.13;;;;;;;;;;5030944;28;20567;-71
2023/05/19 05:42:07;;;;;;;20.17;5.10;;;;;;;;;;5030796;28;20112;-71
2023/05/19 05:44:34;;;;;;;26.10;6.03;;;;;;;;;;5030826;28;20049;-71
2023/05/19 05:47:01;;;;;;;19.77;5.65;;;;;;;;;;5031089;28;20021;-70
2023/05/19 05:49:27;;;;;;;21.02;5.32;;;;;;;;;;5030500;28;20033;-71
2023/05/19 05:51:53;;;;;;;21.83;5.85;;;;;;;;;;5030249;28;20037;-71
2023/05/19 05:54:21;;;;;;;20.88;5.80;;;;;;;;;;5030769;28;20498;-70
2023/05/19 05:56:47;;;;;;;20.42;5.63;;;;;;;;;;5030874;28;20499;-71
2023/05/19 05:59:14;;;;;;;23.27;5.75;;;;;;;;;;5030846;28;20379;-71
2023/05/19 06:01:40;;;;;;;21.70;5.68;;;;;;;;;;5030860;28;20024;-70
2023/05/19 06:04:06;;;;;;;23.17;5.70;;;;;;;;;;5031122;28;20026;-75
2023/05/19 06:06:33;;;;;;;31.63;5.88;;;;;;;;;;5030803;28;20032;-70
2023/05/19 06:08:59;;;;;;;19.00;5.50;;;;;;;;;;5030697;28;20034;-69
2023/05/19 06:11:25;;;;;;;26.60;5.13;;;;;;;;;;5032103;28;20630;-69
2023/05/19 06:13:51;;;;;;;18.88;4.85;;;;;;;;;;5029880;28;20030;-70
2023/05/19 06:16:17;;;;;;;28.63;5.07;;;;;;;;;;5032052;28;20029;-69
2023/05/19 06:18:43;;;;;;;16.23;4.85;;;;;;;;;;5042566;28;20040;-72
2023/05/19 06:21:09;;;;;;;15.88;4.38;;;;;;;;;;5039896;28;20029;-70
2023/05/19 06:23:35;;;;;;;24.98;4.40;;;;;;;;;;5031679;28;20028;-71
2023/05/19 06:26:01;;;;;;;21.05;4.80;;;;;;;;;;5032119;28;20495;-71
2023/05/19 06:28:27;;;;;;;22.75;4.40;;;;;;;;;;5030540;28;20408;-69
2023/05/19 06:30:53;;;;;;;21.25;4.40;;;;;;;;;;5032143;28;20392;-70
2023/05/19 06:33:19;;;;;;;17.75;5.00;;;;;;;;;;5031877;28;20523;-70
2023/05/19 06:35:45;;;;;;;23.83;4.88;;;;;;;;;;5031696;28;20107;-70
2023/05/19 06:38:11;;;;;;;17.80;4.50;;;;;;;;;;5031917;28;20384;-70
2023/05/19 06:40:37;;;;;;;18.20;4.03;;;;;;;;;;5031355;28;20087;-70
2023/05/19 06:43:03;;;;;;;18.30;4.30;;;;;;;;;;5031132;28;20032;-71
2023/05/19 06:45:29;;;;;;;16.15;4.15;;;;;;;;;;5031199;28;20025;-69
2023/05/19 06:47:57;;;;;;;22.85;4.30;;;;;;;;;;5034191;28;20505;-70
2023/05/19 06:50:23;;;;;;;20.65;4.72;;;;;;;;;;5033852;28;20030;-73
2023/05/19 06:52:49;;;;;;;19.88;4.70;;;;;;;;;;5033743;28;20479;-68
2023/05/19 06:55:15;;;;;;;21.35;4.15;;;;;;;;;;5034097;28;20140;-70
2023/05/19 06:57:41;;;;;;;20.27;4.07;;;;;;;;;;5033947;28;20029;-69
2023/05/19 07:00:13;;;;;;;16.85;4.03;;;;;;;;;;5034915;28;20033;-70
2023/05/19 07:02:39;;;;;;;21.80;5.20;;;;;;;;;;5034824;28;20068;-69
2023/05/19 07:05:05;;;;;;;18.40;4.60;;;;;;;;;;5035158;28;20034;-70
2023/05/19 07:07:31;;;;;;;28.23;4.93;;;;;;;;;;5035530;28;20025;-71
2023/05/19 07:09:57;;;;;;;19.63;4.53;;;;;;;;;;5035300;28;20403;-69
2023/05/19 07:12:25;;;;;;;16.70;4.72;;;;;;;;;;5035341;28;20033;-69
2023/05/19 07:14:51;;;;;;;24.88;4.35;;;;;;;;;;5035131;28;20422;-70
2023/05/19 07:17:17;;;;;;;21.25;5.32;;;;;;;;;;5033785;28;20072;-69
2023/05/19 07:19:43;;;;;;;22.88;4.93;;;;;;;;;;5033440;28;20057;-70
2023/05/19 07:22:09;;;;;;;14.73;4.30;;;;;;;;;;5033389;28;20021;-71
2023/05/19 07:24:35;;;;;;;20.05;4.68;;;;;;;;;;5033382;28;20026;-70
2023/05/19 07:27:01;;;;;;;24.60;4.53;;;;;;;;;;5033294;28;20026;-70
2023/05/19 07:29:27;;;;;;;20.27;4.47;;;;;;;;;;5033244;28;20095;-71
2023/05/19 07:31:56;;;;;;;22.00;5.18;;;;;;;;;;5032922;28;20030;-70
2023/05/19 07:34:22;;;;;;;17.67;3.78;;;;;;;;;;5033285;28;20033;-74
2023/05/19 07:36:48;;;;;;;19.30;4.30;;;;;;;;;;5033442;28;20033;-75
2023/05/19 07:39:15;;;;;;;18.35;4.47;;;;;;;;;;5033375;28;20026;-72
2023/05/19 07:41:40;;;;;;;20.75;4.70;;;;;;;;;;5033756;28;20074;-73
2023/05/19 07:44:06;;;;;;;17.40;3.80;;;;;;;;;;5033180;28;20034;-73
2023/05/19 07:46:33;;;;;;;20.58;4.35;;;;;;;;;;5033149;28;20030;-72
2023/05/19 07:48:59;;;;;;;21.27;4.10;;;;;;;;;;5032885;28;20022;-70
2023/05/19 07:51:25;;;;;;;24.98;7.22;;;;;;;;;;5033059;28;20030;-71
2023/05/19 07:53:51;;;;;;;16.17;4.03;;;;;;;;;;5033836;28;20460;-71
2023/05/19 07:56:17;;;;;;;22.50;5.40;;;;;;;;;;5035196;28;20096;-73
2023/05/19 07:58:43;;;;;;;22.25;3.70;;;;;;;;;;5034832;28;20104;-71
2023/05/19 08:01:11;;;;;;;29.63;4.45;;;;;;;;;;5033700;28;20083;-71
2023/05/19 08:03:37;;;;;;;16.08;3.38;;;;;;;;;;5033950;28;20078;-71
2023/05/19 08:06:03;;;;;;;18.63;3.58;;;;;;;;;;5033761;28;20479;-74
2023/05/19 08:08:29;;;;;;;18.45;3.42;;;;;;;;;;5033512;28;20072;-76
2023/05/19 08:10:55;;;;;;;17.85;3.72;;;;;;;;;;5033825;28;20017;-72
2023/05/19 08:13:21;;;;;;;17.90;3.65;;;;;;;;;;5033205;28;20105;-76
2023/05/19 08:15:47;;;;;;;17.55;4.25;;;;;;;;;;5033752;28;20056;-73
2023/05/19 08:18:13;;;;;;;30.80;4.20;;;;;;;;;;5034161;28;20522;-72
2023/05/19 08:20:39;;;;;;;23.08;3.97;;;;;;;;;;5033478;28;20029;-71
2023/05/19 08:23:05;;;;;;;15.10;3.78;;;;;;;;;;5033443;28;20487;-75
2023/05/19 08:25:31;;;;;;;20.77;3.53;;;;;;;;;;5033392;28;20079;-74
2023/05/19 08:27:57;;;;;;;11.43;3.20;;;;;;;;;;5033283;28;20479;-73
2023/05/19 08:30:23;;;;;;;24.63;4.25;;;;;;;;;;5033135;28;20025;-70
2023/05/19 08:32:49;;;;;;;14.82;3.83;;;;;;;;;;5032876;28;20454;-69
2023/05/19 08:35:15;;;;;;;16.15;3.50;;;;;;;;;;5032879;28;20057;-73
2023/05/19 08:37:41;;;;;;;15.75;3.45;;;;;;;;;;5033065;28;20039;-72
2023/05/19 08:40:08;;;;;;;14.02;3.55;;;;;;;;;;5033070;28;20021;-72
2023/05/19 08:42:34;;;;;;;21.88;4.65;;;;;;;;;;5032758;28;20026;-72
2023/05/19 08:45:01;;;;;;;16.98;4.00;;;;;;;;;;5033024;28;20025;-73
2023/05/19 08:47:28;;;;;;;14.45;3.10;;;;;;;;;;5032799;28;20028;-74
2023/05/19 08:49:58;;;;;;;14.15;3.03;;;;;;;;;;5032935;28;20057;-74
2023/05/19 08:52:24;;;;;;;15.73;3.20;;;;;;;;;;5032387;28;20045;-70
2023/05/19 08:54:53;;;;;;;19.98;3.22;;;;;;;;;;5032465;28;20443;-74
2023/05/19 08:57:20;;;;;;;13.35;3.65;;;;;;;;;;5031769;28;20013;-73
2023/05/19 08:59:47;;;;;;;16.17;3.55;;;;;;;;;;5031841;28;20438;-74
2023/05/19 09:02:14;;;;;;;19.92;3.42;;;;;;;;;;5032116;28;20017;-69
2023/05/19 09:04:44;;;;;;;16.90;3.80;;;;;;;;;;5033999;28;20021;-70
2023/05/19 09:07:10;;;;;;;12.27;3.13;;;;;;;;;;5031679;28;20454;-70
2023/05/19 09:09:36;;;;;;;18.13;3.22;;;;;;;;;;5030569;28;20538;-70
2023/05/19 09:12:03;;;;;;;12.50;3.55;;;;;;;;;;5031248;28;20025;-71
2023/05/19 09:14:30;;;;;;;16.83;3.67;;;;;;;;;;5031345;28;20030;-70
2023/05/19 09:16:56;;;;;;;21.02;4.05;;;;;;;;;;5031185;28;20485;-70
2023/05/19 09:19:22;;;;;;;18.15;3.42;;;;;;;;;;5031054;28;20032;-70
2023/05/19 09:21:59;;;;;;;21.85;4.78;;;;;;;;;;5031074;28;20018;-69
2023/05/19 09:24:25;;;;;;;16.17;3.50;;;;;;;;;;5031138;28;20032;-69
2023/05/19 09:26:51;;;;;;;16.85;4.15;;;;;;;;;;5031010;28;20083;-69
2023/05/19 09:29:18;;;;;;;13.85;2.92;;;;;;;;;;5031093;28;20426;-70
2023/05/19 09:31:50;;;;;;;21.98;3.38;;;;;;;;;;5030856;28;20513;-69
2023/05/19 09:34:16;;;;;;;16.50;2.97;;;;;;;;;;5031305;28;20030;-69
2023/05/19 09:36:42;;;;;;;12.27;2.72;;;;;;;;;;5031085;28;20029;-69
2023/05/19 09:39:15;;;;;;;17.45;3.67;;;;;;;;;;5030989;28;20096;-69
2023/05/19 09:41:41;;;;;;;16.33;3.05;;;;;;;;;;5031084;28;20049;-69
2023/05/19 09:44:07;;;;;;;18.00;3.60;;;;;;;;;;5030422;28;20032;-70
2023/05/19 09:46:34;;;;;;;22.45;3.75;;;;;;;;;;5030983;28;20503;-69
2023/05/19 09:49:08;;;;;;;14.90;3.72;;;;;;;;;;5030806;28;20026;-69
2023/05/19 09:51:37;;;;;;;17.60;3.40;;;;;;;;;;5031417;28;20049;-70
2023/05/19 09:54:03;;;;;;;15.05;3.35;;;;;;;;;;5030916;28;20025;-70
2023/05/19 09:56:35;;;;;;;18.10;3.63;;;;;;;;;;5030558;28;20087;-71
2023/05/19 09:59:04;;;;;;;22.02;4.13;;;;;;;;;;5031164;28;20026;-69
2023/05/19 10:01:32;;;;;;;21.45;4.88;;;;;;;;;;5030701;28;20052;-70
2023/05/19 10:03:59;;;;;;;15.27;3.28;;;;;;;;;;5030809;28;20509;-68
2023/05/19 10:06:25;;;;;;;16.95;3.35;;;;;;;;;;5030519;28;20047;-71
2023/05/19 10:08:53;;;;;;;15.65;3.92;;;;;;;;;;5030612;28;20033;-68
2023/05/19 10:11:20;;;;;;;15.98;4.03;;;;;;;;;;5030099;28;20031;-70
2023/05/19 10:13:46;;;;;;;17.80;3.58;;;;;;;;;;5030269;28;20028;-70
2023/05/19 10:16:14;;;;;;;16.55;3.55;;;;;;;;;;5030604;28;20040;-72
2023/05/19 10:18:40;;;;;;;16.33;3.58;;;;;;;;;;5030559;28;20024;-70
2023/05/19 10:21:08;;;;;;;18.80;3.92;;;;;;;;;;5032616;28;20124;-71
2023/05/19 10:23:34;;;;;;;13.75;3.72;;;;;;;;;;5033805;28;20075;-71
2023/05/19 10:26:01;;;;;;;11.35;3.20;;;;;;;;;;5034265;28;20037;-72
2023/05/19 10:28:31;;;;;;;15.48;3.03;;;;;;;;;;5034425;28;20064;-70
2023/05/19 10:30:58;;;;;;;18.02;3.05;;;;;;;;;;5034614;28;20021;-70
2023/05/19 10:33:33;;;;;;;19.35;3.85;;;;;;;;;;5034322;28;20368;-70
2023/05/19 10:36:07;;;;;;;15.00;3.92;;;;;;;;;;5034289;28;20536;-68
2023/05/19 10:38:33;;;;;;;;;;;;;;;;;;5034798;28;20502;-71
2023/05/19 10:41:26;;;;;;;16.48;3.30;;;;;;;;;;5034170;28;19909;-70
2023/05/19 10:44:07;;;;;;;15.30;4.32;;;;;;;;;;5032836;28;20492;-70
2023/05/19 10:46:33;;;;;;;11.20;2.70;;;;;;;;;;5033990;28;20483;-73
2023/05/19 10:49:00;;;;;;;14.98;3.25;;;;;;;;;;5034179;28;20507;-71
2023/05/19 10:51:32;;;;;;;10.25;2.78;;;;;;;;;;5033893;28;20052;-70
2023/05/19 10:54:01;;;;;;;21.38;3.40;;;;;;;;;;5033845;28;20033;-70
2023/05/19 10:56:29;;;;;;;15.63;2.90;;;;;;;;;;5033921;28;20025;-70
2023/05/19 10:58:56;;;;;;;17.50;2.88;;;;;;;;;;5033910;28;20032;-70
2023/05/19 11:01:23;;;;;;;16.83;3.25;;;;;;;;;;5033889;28;20032;-70
2023/05/19 11:03:55;;;;;;;14.35;3.28;;;;;;;;;;5033347;28;20111;-70
2023/05/19 11:06:26;;;;;;;19.33;3.30;;;;;;;;;;5033404;28;20021;-70
2023/05/19 11:08:53;;;;;;;15.63;3.03;;;;;;;;;;5033523;28;20144;-70
2023/05/19 11:11:18;;;;;;;15.48;3.00;;;;;;;;;;5034039;28;20033;-71
2023/05/19 11:13:50;;;;;;;13.93;3.28;;;;;;;;;;5034250;28;20033;-74
2023/05/19 11:16:19;;;;;;;14.95;3.35;;;;;;;;;;5034544;28;20121;-70
2023/05/19 11:18:48;;;;;;;10.50;2.58;;;;;;;;;;5034845;28;20479;-72
2023/05/19 11:21:14;;;;;;;13.55;2.78;;;;;;;;;;5034782;28;20029;-69
2023/05/19 11:23:40;;;;;;;9.80;2.55;;;;;;;;;;5034320;28;20029;-71
2023/05/19 11:26:07;;;;;;;21.73;5.85;;;;;;;;;;5034200;28;20051;-69
2023/05/19 11:28:33;;;;;;;11.75;2.95;;;;;;;;;;5034062;28;20027;-69
2023/05/19 11:31:01;;;;;;;14.32;2.70;;;;;;;;;;5033446;28;20112;-72
2023/05/19 11:33:27;;;;;;;10.95;2.50;;;;;;;;;;5033996;28;20025;-70
2023/05/19 11:35:56;;;;;;;13.57;2.65;;;;;;;;;;5034161;28;20487;-69
2023/05/19 11:38:23;;;;;;;15.50;2.67;;;;;;;;;;5034426;28;20028;-70
2023/05/19 11:40:49;;;;;;;13.32;2.58;;;;;;;;;;5034039;28;20091;-69
2023/05/19 11:43:15;;;;;;;12.18;2.45;;;;;;;;;;5033989;28;20032;-69
2023/05/19 11:45:41;;;;;;;9.80;2.30;;;;;;;;;;5034154;28;20164;-68
2023/05/19 11:48:11;;;;;;;13.00;2.55;;;;;;;;;;5033930;28;20033;-68
2023/05/19 11:50:40;;;;;;;7.35;2.00;;;;;;;;;;5033731;28;20442;-71
2023/05/19 11:53:06;;;;;;;13.43;2.63;;;;;;;;;;5034252;28;20025;-70
2023/05/19 11:55:32;;;;;;;12.30;2.35;;;;;;;;;;5034123;28;20036;-70
2023/05/19 11:57:58;;;;;;;15.13;2.72;;;;;;;;;;5033691;28;20021;-69
2023/05/19 12:00:25;;;;;;;14.02;2.40;;;;;;;;;;5033656;28;20022;-70
2023/05/19 12:02:51;;;;;;;6.90;2.53;;;;;;;;;;5033285;28;20387;-69
2023/05/19 12:05:18;;;;;;;13.13;3.42;;;;;;;;;;5033923;28;20052;-72
2023/05/19 12:07:44;;;;;;;10.80;4.43;;;;;;;;;;5033494;28;20025;-71
2023/05/19 12:10:10;;;;;;;27.75;12.73;;;;;;;;;;5033336;28;20029;-70
2023/05/19 12:12:37;;;;;;;11.43;2.67;;;;;;;;;;5033123;28;20030;-69
2023/05/19 12:15:03;;;;;;;12.95;3.05;;;;;;;;;;5034013;28;20664;-69
2023/05/19 12:17:31;;;;;;;11.43;2.53;;;;;;;;;;5033545;28;20022;-71
2023/05/19 12:19:58;;;;;;;9.75;2.35;;;;;;;;;;5033935;28;20033;-70
2023/05/19 12:22:24;;;;;;;8.63;2.38;;;;;;;;;;5034391;28;20022;-69
2023/05/19 12:24:50;;;;;;;16.67;2.83;;;;;;;;;;5034289;28;20025;-69
2023/05/19 12:27:18;;;;;;;10.38;2.42;;;;;;;;;;5033790;28;20068;-70
2023/05/19 12:29:49;;;;;;;7.82;2.22;;;;;;;;;;5032764;28;20025;-69
2023/05/19 12:32:15;;;;;;;9.55;2.63;;;;;;;;;;5032721;28;20561;-70
2023/05/19 12:34:41;;;;;;;15.60;3.55;;;;;;;;;;5036640;28;20025;-70
2023/05/19 12:37:07;;;;;;;23.25;3.45;;;;;;;;;;5038174;28;20104;-70
2023/05/19 12:39:33;;;;;;;9.70;2.10;;;;;;;;;;5035331;28;20099;-70
2023/05/19 12:42:03;;;;;;;10.40;2.53;;;;;;;;;;5037766;28;20021;-70
2023/05/19 12:44:32;;;;;;;8.05;2.30;;;;;;;;;;5040970;28;20033;-71
2023/05/19 12:46:58;;;;;;;13.52;2.80;;;;;;;;;;5057183;28;20024;-71
2023/05/19 12:49:24;;;;;;;13.82;3.28;;;;;;;;;;5056774;28;20116;-70
2023/05/19 12:51:51;;;;;;;14.45;3.00;;;;;;;;;;5050369;28;20038;-70
2023/05/19 12:54:21;;;;;;;9.88;2.75;;;;;;;;;;5031325;28;20100;-70
2023/05/19 12:56:50;;;;;;;11.98;2.28;;;;;;;;;;5038816;28;20077;-70
2023/05/19 12:59:24;;;;;;;12.02;2.30;;;;;;;;;;5039744;28;20049;-70
2023/05/19 13:01:56;;;;;;;11.10;2.30;;;;;;;;;;5036133;28;20374;-71
2023/05/19 13:04:23;;;;;;;8.77;2.40;;;;;;;;;;5042440;28;20038;-70
2023/05/19 13:06:49;;;;;;;10.00;2.28;;;;;;;;;;5037522;28;20029;-70
2023/05/19 13:09:18;;;;;;;13.13;2.53;;;;;;;;;;5038426;28;20030;-70
2023/05/19 13:11:49;;;;;;;9.23;2.42;;;;;;;;;;5034033;28;20033;-71
2023/05/19 13:14:17;;;;;;;9.73;3.28;;;;;;;;;;5037097;28;20067;-71
2023/05/19 13:16:43;;;;;;;7.38;2.40;;;;;;;;;;5036818;28;20490;-72
2023/05/19 13:19:09;;;;;;;14.45;2.25;;;;;;;;;;5037959;28;20028;-74
2023/05/19 13:21:35;;;;;;;6.97;2.00;;;;;;;;;;5037164;28;20025;-73
2023/05/19 13:24:03;;;;;;;13.50;3.15;;;;;;;;;;5033368;28;20045;-70
2023/05/19 13:26:29;;;;;;;9.93;2.30;;;;;;;;;;5033197;28;20475;-70
2023/05/19 13:28:55;;;;;;;18.23;9.63;;;;;;;;;;5033029;28;20040;-70
2023/05/19 13:31:21;;;;;;;5.82;2.33;;;;;;;;;;5032921;28;20033;-71
2023/05/19 13:33:47;;;;;;;8.07;2.55;;;;;;;;;;5032607;28;20035;-70
2023/05/19 13:36:13;;;;;;;10.88;2.10;;;;;;;;;;5034536;28;20433;-71
2023/05/19 13:38:40;;;;;;;10.43;2.45;;;;;;;;;;5032794;28;20057;-71
2023/05/19 13:41:06;;;;;;;7.47;2.70;;;;;;;;;;5033396;28;20056;-70
2023/05/19 13:43:32;;;;;;;7.50;2.22;;;;;;;;;;5031494;28;20036;-70
2023/05/19 13:45:58;;;;;;;6.82;2.10;;;;;;;;;;5031628;28;20033;-69
2023/05/19 13:48:24;;;;;;;10.20;2.20;;;;;;;;;;5031637;28;20360;-70
2023/05/19 13:50:53;;;;;;;7.28;2.10;;;;;;;;;;5031537;28;20487;-70
2023/05/19 13:53:19;;;;;;;10.70;2.70;;;;;;;;;;5031760;28;20041;-70
2023/05/19 13:55:45;;;;;;;9.45;2.45;;;;;;;;;;5031654;28;20404;-70
2023/05/19 13:58:13;;;;;;;13.95;2.63;;;;;;;;;;5031620;28;20048;-70
2023/05/19 14:00:39;;;;;;;16.25;2.88;;;;;;;;;;5031791;28;20053;-70
2023/05/19 14:03:05;;;;;;;12.85;2.83;;;;;;;;;;5031408;28;20498;-70
2023/05/19 14:05:31;;;;;;;6.05;2.45;;;;;;;;;;5032008;28;20108;-71
2023/05/19 14:07:59;;;;;;;11.77;2.33;;;;;;;;;;5031561;28;20514;-70
2023/05/19 14:10:25;;;;;;;7.88;2.25;;;;;;;;;;5031642;28;20029;-72
2023/05/19 14:12:52;;;;;;;10.00;2.92;;;;;;;;;;5031285;28;20113;-70
2023/05/19 14:15:19;;;;;;;7.30;2.03;;;;;;;;;;5031749;28;20087;-71
2023/05/19 14:17:45;;;;;;;14.07;3.05;;;;;;;;;;5029423;28;20101;-70
2023/05/19 14:20:11;;;;;;;8.07;2.20;;;;;;;;;;5031103;28;20018;-69
2023/05/19 14:22:37;;;;;;;13.57;2.20;;;;;;;;;;5033650;28;20551;-69
2023/05/19 14:25:04;;;;;;;5.13;1.75;;;;;;;;;;5051155;28;20057;-69
2023/05/19 14:27:29;;;;;;;8.75;2.38;;;;;;;;;;5051046;28;20040;-71
2023/05/19 14:29:56;;;;;;;8.38;2.50;;;;;;;;;;5050818;28;20455;-69